Terminal Aerodrome Forecast
Issued by NWS Sterling, VA

Current Version | Previous Version | Graphics & Text | Print | Product List | Glossary On
Versions: 1 2 3 4 5 6 7 8 9 10 11 12 13 14 15 16 17 18 19 20 21
000
FTUS41 KLWX 241700
TAFIAD
TAF
KIAD 241733Z 2418/2524 32008KT P6SM SCT250
     FM242200 33004KT P6SM SCT250
     FM250900 13004KT P6SM BKN100
     FM251400 14009KT P6SM BKN110
     FM251800 15012KT P6SM SHRA OVC035
     FM252100 15011KT P6SM -SHRA OVC020
     FM252300 12006KT P6SM -SHRA OVC020=

USA.gov is the U.S. government's official web portal to all federal, state and local government web resources and services.